sensor_id;sensor_type;location;lat;lon;timestamp;temperature;humidity
22114;DHT22;11223;49.968;9.062;2022-07-12T00:01:19;14.90;99.90
22114;DHT22;11223;49.968;9.062;2022-07-12T00:03:45;14.90;99.90
22114;DHT22;11223;49.968;9.062;2022-07-12T00:06:11;14.90;99.90
22114;DHT22;11223;49.968;9.062;2022-07-12T00:08:37;14.90;99.90
22114;DHT22;11223;49.968;9.062;2022-07-12T00:11:03;15.00;99.90
22114;DHT22;11223;49.968;9.062;2022-07-12T00:13:29;15.00;99.90
22114;DHT22;11223;49.968;9.062;2022-07-12T00:15:55;15.10;99.90
22114;DHT22;11223;49.968;9.062;2022-07-12T00:18:22;15.10;99.90
22114;DHT22;11223;49.968;9.062;2022-07-12T00:20:48;15.10;99.90
22114;DHT22;11223;49.968;9.062;2022-07-12T00:23:14;15.10;99.90
22114;DHT22;11223;49.968;9.062;2022-07-12T00:25:40;15.10;99.90
22114;DHT22;11223;49.968;9.062;2022-07-12T00:28:06;15.10;99.90
22114;DHT22;11223;49.968;9.062;2022-07-12T00:30:32;15.10;99.90
22114;DHT22;11223;49.968;9.062;2022-07-12T00:32:58;15.10;99.90
22114;DHT22;11223;49.968;9.062;2022-07-12T00:35:23;15.00;99.90
22114;DHT22;11223;49.968;9.062;2022-07-12T00:37:49;15.10;99.90
22114;DHT22;11223;49.968;9.062;2022-07-12T00:40:14;15.10;99.90
22114;DHT22;11223;49.968;9.062;2022-07-12T00:42:40;15.10;99.90
22114;DHT22;11223;49.968;9.062;2022-07-12T00:45:07;15.10;99.90
22114;DHT22;11223;49.968;9.062;2022-07-12T00:47:35;15.10;99.90
22114;DHT22;11223;49.968;9.062;2022-07-12T00:52:36;15.10;99.90
22114;DHT22;11223;49.968;9.062;2022-07-12T00:55:06;15.10;99.90
22114;DHT22;11223;49.968;9.062;2022-07-12T00:57:33;15.20;99.90
22114;DHT22;11223;49.968;9.062;2022-07-12T00:59:59;15.20;99.90
22114;DHT22;11223;49.968;9.062;2022-07-12T01:02:25;15.20;99.90
22114;DHT22;11223;49.968;9.062;2022-07-12T01:04:51;15.20;99.90
22114;DHT22;11223;49.968;9.062;2022-07-12T01:07:18;15.20;99.90
22114;DHT22;11223;49.968;9.062;2022-07-12T01:09:44;15.30;99.90
22114;DHT22;11223;49.968;9.062;2022-07-12T01:12:10;15.20;99.90
22114;DHT22;11223;49.968;9.062;2022-07-12T01:14:37;15.20;99.90
22114;DHT22;11223;49.968;9.062;2022-07-12T01:17:06;15.20;99.90
22114;DHT22;11223;49.968;9.062;2022-07-12T01:19:32;15.10;99.90
22114;DHT22;11223;49.968;9.062;2022-07-12T01:22:01;15.20;99.90
22114;DHT22;11223;49.968;9.062;2022-07-12T01:24:27;15.20;99.90
22114;DHT22;11223;49.968;9.062;2022-07-12T01:26:52;15.10;99.90
22114;DHT22;11223;49.968;9.062;2022-07-12T01:29:19;15.20;99.90
22114;DHT22;11223;49.968;9.062;2022-07-12T01:31:45;15.20;99.90
22114;DHT22;11223;49.968;9.062;2022-07-12T01:34:11;15.20;99.90
22114;DHT22;11223;49.968;9.062;2022-07-12T01:36:38;15.20;99.90
22114;DHT22;11223;49.968;9.062;2022-07-12T01:39:04;15.10;99.90
22114;DHT22;11223;49.968;9.062;2022-07-12T01:41:31;15.10;99.90
22114;DHT22;11223;49.968;9.062;2022-07-12T01:43:57;15.10;99.90
22114;DHT22;11223;49.968;9.062;2022-07-12T01:46:23;15.10;99.90
22114;DHT22;11223;49.968;9.062;2022-07-12T01:48:49;15.10;99.90
22114;DHT22;11223;49.968;9.062;2022-07-12T01:51:15;15.00;99.90
22114;DHT22;11223;49.968;9.062;2022-07-12T01:53:40;15.00;99.90
22114;DHT22;11223;49.968;9.062;2022-07-12T01:56:06;14.90;99.90
22114;DHT22;11223;49.968;9.062;2022-07-12T01:58:32;14.90;99.90
22114;DHT22;11223;49.968;9.062;2022-07-12T02:00:58;14.90;99.90
22114;DHT22;11223;49.968;9.062;2022-07-12T02:03:23;14.90;99.90
22114;DHT22;11223;49.968;9.062;2022-07-12T02:05:49;14.90;99.90
22114;DHT22;11223;49.968;9.062;2022-07-12T02:08:15;14.90;99.90
22114;DHT22;11223;49.968;9.062;2022-07-12T02:10:42;14.90;99.90
22114;DHT22;11223;49.968;9.062;2022-07-12T02:13:08;14.80;99.90
22114;DHT22;11223;49.968;9.062;2022-07-12T02:15:33;14.80;99.90
22114;DHT22;11223;49.968;9.062;2022-07-12T02:17:59;14.80;99.90
22114;DHT22;11223;49.968;9.062;2022-07-12T02:20:25;14.80;99.90
22114;DHT22;11223;49.968;9.062;2022-07-12T02:22:50;14.80;99.90
22114;DHT22;11223;49.968;9.062;2022-07-12T02:25:16;14.70;99.90
22114;DHT22;11223;49.968;9.062;2022-07-12T02:27:42;14.70;99.90
22114;DHT22;11223;49.968;9.062;2022-07-12T02:30:09;14.70;99.90
22114;DHT22;11223;49.968;9.062;2022-07-12T02:32:35;14.70;99.90
22114;DHT22;11223;49.968;9.062;2022-07-12T02:35:02;14.60;99.90
22114;DHT22;11223;49.968;9.062;2022-07-12T02:37:28;14.60;99.90
22114;DHT22;11223;49.968;9.062;2022-07-12T02:39:53;14.50;99.90
22114;DHT22;11223;49.968;9.062;2022-07-12T02:42:39;14.40;99.90
22114;DHT22;11223;49.968;9.062;2022-07-12T02:45:05;14.30;99.90
22114;DHT22;11223;49.968;9.062;2022-07-12T02:47:31;14.20;99.90
22114;DHT22;11223;49.968;9.062;2022-07-12T02:49:58;14.10;99.90
22114;DHT22;11223;49.968;9.062;2022-07-12T02:52:23;14.00;99.90
22114;DHT22;11223;49.968;9.062;2022-07-12T02:54:50;14.00;99.90
22114;DHT22;11223;49.968;9.062;2022-07-12T02:57:15;14.00;99.90
22114;DHT22;11223;49.968;9.062;2022-07-12T02:59:41;14.00;99.90
22114;DHT22;11223;49.968;9.062;2022-07-12T03:02:06;14.00;99.90
22114;DHT22;11223;49.968;9.062;2022-07-12T03:04:32;14.00;99.90
22114;DHT22;11223;49.968;9.062;2022-07-12T03:06:57;13.80;99.90
22114;DHT22;11223;49.968;9.062;2022-07-12T03:09:23;13.80;99.90
22114;DHT22;11223;49.968;9.062;2022-07-12T03:11:49;13.70;99.90
22114;DHT22;11223;49.968;9.062;2022-07-12T03:14:15;13.60;99.90
22114;DHT22;11223;49.968;9.062;2022-07-12T03:16:40;13.50;99.90
22114;DHT22;11223;49.968;9.062;2022-07-12T03:19:06;13.40;99.90
22114;DHT22;11223;49.968;9.062;2022-07-12T03:21:31;13.50;99.90
22114;DHT22;11223;49.968;9.062;2022-07-12T03:23:57;13.40;99.90
22114;DHT22;11223;49.968;9.062;2022-07-12T03:26:23;13.30;99.90
22114;DHT22;11223;49.968;9.062;2022-07-12T03:28:49;13.30;99.90
22114;DHT22;11223;49.968;9.062;2022-07-12T03:31:14;13.30;99.90
22114;DHT22;11223;49.968;9.062;2022-07-12T03:33:40;13.20;99.90
22114;DHT22;11223;49.968;9.062;2022-07-12T03:36:06;13.10;99.90
22114;DHT22;11223;49.968;9.062;2022-07-12T03:38:34;13.10;99.90
22114;DHT22;11223;49.968;9.062;2022-07-12T03:40:59;13.10;99.90
22114;DHT22;11223;49.968;9.062;2022-07-12T03:43:26;13.00;99.90
22114;DHT22;11223;49.968;9.062;2022-07-12T03:45:52;13.00;99.90
22114;DHT22;11223;49.968;9.062;2022-07-12T03:48:17;13.00;99.90
22114;DHT22;11223;49.968;9.062;2022-07-12T03:50:43;12.90;99.90
22114;DHT22;11223;49.968;9.062;2022-07-12T03:53:08;12.90;99.90
22114;DHT22;11223;49.968;9.062;2022-07-12T03:55:34;12.90;99.90
22114;DHT22;11223;49.968;9.062;2022-07-12T03:57:59;12.90;99.90
22114;DHT22;11223;49.968;9.062;2022-07-12T04:00:25;12.90;99.90
22114;DHT22;11223;49.968;9.062;2022-07-12T04:02:51;12.90;99.90
22114;DHT22;11223;49.968;9.062;2022-07-12T04:05:19;12.90;99.90
22114;DHT22;11223;49.968;9.062;2022-07-12T04:07:45;12.90;99.90
22114;DHT22;11223;49.968;9.062;2022-07-12T04:10:11;12.90;99.90
22114;DHT22;11223;49.968;9.062;2022-07-12T04:12:36;12.90;99.90
22114;DHT22;11223;49.968;9.062;2022-07-12T04:15:05;13.00;99.90
22114;DHT22;11223;49.968;9.062;2022-07-12T04:17:31;13.00;99.90
22114;DHT22;11223;49.968;9.062;2022-07-12T04:19:57;13.00;99.90
22114;DHT22;11223;49.968;9.062;2022-07-12T04:22:22;13.00;99.90
22114;DHT22;11223;49.968;9.062;2022-07-12T04:24:48;13.00;99.90
22114;DHT22;11223;49.968;9.062;2022-07-12T04:27:13;13.00;99.90
22114;DHT22;11223;49.968;9.062;2022-07-12T04:29:39;13.10;99.90
22114;DHT22;11223;49.968;9.062;2022-07-12T04:32:05;13.10;99.90
22114;DHT22;11223;49.968;9.062;2022-07-12T04:34:31;13.10;99.90
22114;DHT22;11223;49.968;9.062;2022-07-12T04:36:56;13.20;99.90
22114;DHT22;11223;49.968;9.062;2022-07-12T04:39:22;13.20;99.90
22114;DHT22;11223;49.968;9.062;2022-07-12T04:41:48;13.20;99.90
22114;DHT22;11223;49.968;9.062;2022-07-12T04:44:13;13.30;99.90
22114;DHT22;11223;49.968;9.062;2022-07-12T04:46:39;13.30;99.90
22114;DHT22;11223;49.968;9.062;2022-07-12T04:49:04;13.30;99.90
22114;DHT22;11223;49.968;9.062;2022-07-12T04:51:31;13.40;99.90
22114;DHT22;11223;49.968;9.062;2022-07-12T04:53:57;13.50;99.90
22114;DHT22;11223;49.968;9.062;2022-07-12T04:56:22;13.60;99.90
22114;DHT22;11223;49.968;9.062;2022-07-12T04:58:48;13.60;99.90
22114;DHT22;11223;49.968;9.062;2022-07-12T05:01:14;13.80;99.90
22114;DHT22;11223;49.968;9.062;2022-07-12T05:03:40;13.80;99.90
22114;DHT22;11223;49.968;9.062;2022-07-12T05:06:06;13.90;99.90
22114;DHT22;11223;49.968;9.062;2022-07-12T05:08:31;14.00;99.90
22114;DHT22;11223;49.968;9.062;2022-07-12T05:10:57;14.10;99.90
22114;DHT22;11223;49.968;9.062;2022-07-12T05:13:23;14.20;99.90
22114;DHT22;11223;49.968;9.062;2022-07-12T05:15:48;14.30;99.90
22114;DHT22;11223;49.968;9.062;2022-07-12T05:18:14;14.30;99.90
22114;DHT22;11223;49.968;9.062;2022-07-12T05:20:40;14.40;99.90
22114;DHT22;11223;49.968;9.062;2022-07-12T05:23:06;14.50;99.90
22114;DHT22;11223;49.968;9.062;2022-07-12T05:25:31;14.50;99.90
22114;DHT22;11223;49.968;9.062;2022-07-12T05:27:57;14.70;99.90
22114;DHT22;11223;49.968;9.062;2022-07-12T05:30:22;14.70;99.90
22114;DHT22;11223;49.968;9.062;2022-07-12T05:32:48;14.80;99.90
22114;DHT22;11223;49.968;9.062;2022-07-12T05:35:14;14.90;99.90
22114;DHT22;11223;49.968;9.062;2022-07-12T05:37:40;15.00;99.90
22114;DHT22;11223;49.968;9.062;2022-07-12T05:40:06;15.10;99.90
22114;DHT22;11223;49.968;9.062;2022-07-12T05:42:32;15.20;99.90
22114;DHT22;11223;49.968;9.062;2022-07-12T05:44:57;15.30;99.90
22114;DHT22;11223;49.968;9.062;2022-07-12T05:47:23;15.40;99.90
22114;DHT22;11223;49.968;9.062;2022-07-12T05:49:48;15.60;99.90
22114;DHT22;11223;49.968;9.062;2022-07-12T05:52:14;15.60;99.90
22114;DHT22;11223;49.968;9.062;2022-07-12T05:54:58;15.80;99.90
22114;DHT22;11223;49.968;9.062;2022-07-12T05:57:23;15.90;99.90
22114;DHT22;11223;49.968;9.062;2022-07-12T05:59:49;16.00;99.90
22114;DHT22;11223;49.968;9.062;2022-07-12T06:02:15;16.10;99.90
22114;DHT22;11223;49.968;9.062;2022-07-12T06:04:41;16.20;99.90
22114;DHT22;11223;49.968;9.062;2022-07-12T06:07:06;16.30;99.90
22114;DHT22;11223;49.968;9.062;2022-07-12T06:09:32;16.40;99.90
22114;DHT22;11223;49.968;9.062;2022-07-12T06:11:57;16.50;99.90
22114;DHT22;11223;49.968;9.062;2022-07-12T06:14:23;16.60;99.90
22114;DHT22;11223;49.968;9.062;2022-07-12T06:16:48;16.70;99.90
22114;DHT22;11223;49.968;9.062;2022-07-12T06:19:14;16.80;99.90
22114;DHT22;11223;49.968;9.062;2022-07-12T06:21:40;16.90;99.90
22114;DHT22;11223;49.968;9.062;2022-07-12T06:24:05;17.10;99.90
22114;DHT22;11223;49.968;9.062;2022-07-12T06:26:31;17.20;99.90
22114;DHT22;11223;49.968;9.062;2022-07-12T06:28:56;17.30;99.90
22114;DHT22;11223;49.968;9.062;2022-07-12T06:31:22;17.50;99.90
22114;DHT22;11223;49.968;9.062;2022-07-12T06:33:49;17.60;99.90
22114;DHT22;11223;49.968;9.062;2022-07-12T06:36:14;17.70;99.90
22114;DHT22;11223;49.968;9.062;2022-07-12T06:38:40;17.90;99.90
22114;DHT22;11223;49.968;9.062;2022-07-12T06:41:06;18.00;99.90
22114;DHT22;11223;49.968;9.062;2022-07-12T06:43:31;18.10;99.90
22114;DHT22;11223;49.968;9.062;2022-07-12T06:45:57;18.20;99.90
22114;DHT22;11223;49.968;9.062;2022-07-12T06:48:22;18.30;99.90
22114;DHT22;11223;49.968;9.062;2022-07-12T06:50:48;18.40;99.90
22114;DHT22;11223;49.968;9.062;2022-07-12T06:53:14;18.50;99.90
22114;DHT22;11223;49.968;9.062;2022-07-12T06:55:40;18.50;99.90
22114;DHT22;11223;49.968;9.062;2022-07-12T06:58:06;18.60;99.90
22114;DHT22;11223;49.968;9.062;2022-07-12T07:00:31;18.70;99.90
22114;DHT22;11223;49.968;9.062;2022-07-12T07:02:57;18.80;99.90
22114;DHT22;11223;49.968;9.062;2022-07-12T07:05:22;19.00;99.90
22114;DHT22;11223;49.968;9.062;2022-07-12T07:07:48;19.00;99.90
22114;DHT22;11223;49.968;9.062;2022-07-12T07:10:13;19.10;99.90
22114;DHT22;11223;49.968;9.062;2022-07-12T07:12:39;19.30;99.90
22114;DHT22;11223;49.968;9.062;2022-07-12T07:15:05;19.40;99.90
22114;DHT22;11223;49.968;9.062;2022-07-12T07:17:31;19.50;99.90
22114;DHT22;11223;49.968;9.062;2022-07-12T07:19:56;19.70;99.90
22114;DHT22;11223;49.968;9.062;2022-07-12T07:22:22;19.80;99.90
22114;DHT22;11223;49.968;9.062;2022-07-12T07:24:48;20.00;99.90
22114;DHT22;11223;49.968;9.062;2022-07-12T07:27:13;20.10;99.90
22114;DHT22;11223;49.968;9.062;2022-07-12T07:29:39;20.20;99.90
22114;DHT22;11223;49.968;9.062;2022-07-12T07:32:23;20.30;99.90
22114;DHT22;11223;49.968;9.062;2022-07-12T07:34:49;20.40;99.90
22114;DHT22;11223;49.968;9.062;2022-07-12T07:37:15;20.40;99.90
22114;DHT22;11223;49.968;9.062;2022-07-12T07:39:40;20.50;99.90
22114;DHT22;11223;49.968;9.062;2022-07-12T07:42:06;20.70;99.90
22114;DHT22;11223;49.968;9.062;2022-07-12T07:44:32;20.90;99.90
22114;DHT22;11223;49.968;9.062;2022-07-12T07:46:57;20.90;99.90
22114;DHT22;11223;49.968;9.062;2022-07-12T07:49:23;21.00;99.90
22114;DHT22;11223;49.968;9.062;2022-07-12T07:51:48;21.10;99.90
22114;DHT22;11223;49.968;9.062;2022-07-12T07:54:14;21.30;99.90
22114;DHT22;11223;49.968;9.062;2022-07-12T07:56:39;21.50;99.90
22114;DHT22;11223;49.968;9.062;2022-07-12T07:59:05;21.70;99.90
22114;DHT22;11223;49.968;9.062;2022-07-12T08:01:33;21.80;99.90
22114;DHT22;11223;49.968;9.062;2022-07-12T08:04:12;21.90;99.90
22114;DHT22;11223;49.968;9.062;2022-07-12T08:06:38;21.90;99.90
22114;DHT22;11223;49.968;9.062;2022-07-12T08:09:04;21.90;99.90
22114;DHT22;11223;49.968;9.062;2022-07-12T08:11:30;21.80;99.90
22114;DHT22;11223;49.968;9.062;2022-07-12T08:13:56;21.80;99.90
22114;DHT22;11223;49.968;9.062;2022-07-12T08:16:21;21.60;99.90
22114;DHT22;11223;49.968;9.062;2022-07-12T08:18:47;21.60;99.90
22114;DHT22;11223;49.968;9.062;2022-07-12T08:21:12;21.80;99.90
22114;DHT22;11223;49.968;9.062;2022-07-12T08:23:38;21.90;99.90
22114;DHT22;11223;49.968;9.062;2022-07-12T08:26:04;22.00;99.90
22114;DHT22;11223;49.968;9.062;2022-07-12T08:28:29;22.20;99.90
22114;DHT22;11223;49.968;9.062;2022-07-12T08:30:55;22.40;99.90
22114;DHT22;11223;49.968;9.062;2022-07-12T08:33:21;22.50;99.90
22114;DHT22;11223;49.968;9.062;2022-07-12T08:35:46;22.50;99.90
22114;DHT22;11223;49.968;9.062;2022-07-12T08:38:12;22.50;99.90
22114;DHT22;11223;49.968;9.062;2022-07-12T08:40:39;22.60;99.90
22114;DHT22;11223;49.968;9.062;2022-07-12T08:43:05;22.70;99.90
22114;DHT22;11223;49.968;9.062;2022-07-12T08:45:31;22.90;99.90
22114;DHT22;11223;49.968;9.062;2022-07-12T08:47:56;23.00;99.90
22114;DHT22;11223;49.968;9.062;2022-07-12T08:50:22;23.20;99.90
22114;DHT22;11223;49.968;9.062;2022-07-12T08:52:53;23.30;99.90
22114;DHT22;11223;49.968;9.062;2022-07-12T08:55:33;23.40;99.90
22114;DHT22;11223;49.968;9.062;2022-07-12T08:58:02;23.50;99.90
22114;DHT22;11223;49.968;9.062;2022-07-12T09:00:29;23.70;99.90
22114;DHT22;11223;49.968;9.062;2022-07-12T09:02:56;23.90;99.90
22114;DHT22;11223;49.968;9.062;2022-07-12T09:05:25;23.80;99.30
22114;DHT22;11223;49.968;9.062;2022-07-12T09:07:51;23.60;99.30
22114;DHT22;11223;49.968;9.062;2022-07-12T09:10:26;23.40;99.90
22114;DHT22;11223;49.968;9.062;2022-07-12T09:12:52;23.30;99.90
22114;DHT22;11223;49.968;9.062;2022-07-12T09:15:18;23.50;99.90
22114;DHT22;11223;49.968;9.062;2022-07-12T09:18:02;23.60;99.90
22114;DHT22;11223;49.968;9.062;2022-07-12T09:20:34;23.90;99.70
22114;DHT22;11223;49.968;9.062;2022-07-12T09:23:03;24.10;99.10
22114;DHT22;11223;49.968;9.062;2022-07-12T09:25:29;24.30;97.90
22114;DHT22;11223;49.968;9.062;2022-07-12T09:27:57;24.40;96.80
22114;DHT22;11223;49.968;9.062;2022-07-12T09:30:27;24.60;95.90
22114;DHT22;11223;49.968;9.062;2022-07-12T09:32:58;24.80;95.80
22114;DHT22;11223;49.968;9.062;2022-07-12T09:35:44;24.90;93.70
22114;DHT22;11223;49.968;9.062;2022-07-12T09:38:40;25.00;93.60
22114;DHT22;11223;49.968;9.062;2022-07-12T09:41:17;25.10;90.10
22114;DHT22;11223;49.968;9.062;2022-07-12T09:43:44;25.10;90.40
22114;DHT22;11223;49.968;9.062;2022-07-12T09:46:10;25.10;89.40
22114;DHT22;11223;49.968;9.062;2022-07-12T09:48:37;25.10;90.00
22114;DHT22;11223;49.968;9.062;2022-07-12T09:51:03;25.20;90.30
22114;DHT22;11223;49.968;9.062;2022-07-12T09:53:46;25.40;90.40
22114;DHT22;11223;49.968;9.062;2022-07-12T09:56:17;25.50;90.60
22114;DHT22;11223;49.968;9.062;2022-07-12T09:58:55;25.70;87.90
22114;DHT22;11223;49.968;9.062;2022-07-12T10:01:23;25.70;87.30
22114;DHT22;11223;49.968;9.062;2022-07-12T10:03:50;25.90;86.20
22114;DHT22;11223;49.968;9.062;2022-07-12T10:06:25;26.10;86.90
22114;DHT22;11223;49.968;9.062;2022-07-12T10:08:51;26.30;85.80
22114;DHT22;11223;49.968;9.062;2022-07-12T10:11:18;26.30;85.50
22114;DHT22;11223;49.968;9.062;2022-07-12T10:13:45;26.40;82.50
22114;DHT22;11223;49.968;9.062;2022-07-12T10:16:13;26.40;84.00
22114;DHT22;11223;49.968;9.062;2022-07-12T10:18:39;26.40;85.80
22114;DHT22;11223;49.968;9.062;2022-07-12T10:21:19;26.40;82.70
22114;DHT22;11223;49.968;9.062;2022-07-12T10:23:45;26.10;83.60
22114;DHT22;11223;49.968;9.062;2022-07-12T10:28:59;26.10;84.30
22114;DHT22;11223;49.968;9.062;2022-07-12T10:31:28;26.30;84.10
22114;DHT22;11223;49.968;9.062;2022-07-12T10:34:13;26.40;82.70
22114;DHT22;11223;49.968;9.062;2022-07-12T10:39:21;26.70;81.60
22114;DHT22;11223;49.968;9.062;2022-07-12T10:44:39;26.90;79.30
22114;DHT22;11223;49.968;9.062;2022-07-12T10:47:07;26.90;78.00
22114;DHT22;11223;49.968;9.062;2022-07-12T10:49:33;26.90;79.40
22114;DHT22;11223;49.968;9.062;2022-07-12T10:57:57;27.20;77.50
22114;DHT22;11223;49.968;9.062;2022-07-12T11:00:23;27.30;77.80
22114;DHT22;11223;49.968;9.062;2022-07-12T11:02:48;27.40;76.20
22114;DHT22;11223;49.968;9.062;2022-07-12T11:05:14;27.50;74.50
22114;DHT22;11223;49.968;9.062;2022-07-12T11:07:39;27.50;72.90
22114;DHT22;11223;49.968;9.062;2022-07-12T11:10:07;27.50;73.50
22114;DHT22;11223;49.968;9.062;2022-07-12T11:12:36;27.60;73.50
22114;DHT22;11223;49.968;9.062;2022-07-12T11:15:03;27.60;74.20
22114;DHT22;11223;49.968;9.062;2022-07-12T11:17:30;27.80;74.50
22114;DHT22;11223;49.968;9.062;2022-07-12T11:22:29;28.00;73.30
22114;DHT22;11223;49.968;9.062;2022-07-12T11:24:56;28.10;71.80
22114;DHT22;11223;49.968;9.062;2022-07-12T11:27:21;28.10;71.70
22114;DHT22;11223;49.968;9.062;2022-07-12T11:30:00;28.20;70.10
22114;DHT22;11223;49.968;9.062;2022-07-12T11:32:36;28.30;70.20
22114;DHT22;11223;49.968;9.062;2022-07-12T11:35:03;28.30;70.40
22114;DHT22;11223;49.968;9.062;2022-07-12T11:37:28;28.40;70.60
22114;DHT22;11223;49.968;9.062;2022-07-12T11:39:56;28.50;70.90
22114;DHT22;11223;49.968;9.062;2022-07-12T11:42:21;28.70;65.80
22114;DHT22;11223;49.968;9.062;2022-07-12T11:44:50;28.60;66.20
22114;DHT22;11223;49.968;9.062;2022-07-12T11:47:21;28.60;65.80
22114;DHT22;11223;49.968;9.062;2022-07-12T11:49:52;28.50;66.30
22114;DHT22;11223;49.968;9.062;2022-07-12T11:52:19;28.60;68.80
22114;DHT22;11223;49.968;9.062;2022-07-12T11:54:47;28.70;69.00
22114;DHT22;11223;49.968;9.062;2022-07-12T11:57:13;28.80;68.30
22114;DHT22;11223;49.968;9.062;2022-07-12T11:59:39;28.90;69.70
22114;DHT22;11223;49.968;9.062;2022-07-12T12:02:07;29.20;69.50
22114;DHT22;11223;49.968;9.062;2022-07-12T12:04:51;29.30;67.50
22114;DHT22;11223;49.968;9.062;2022-07-12T12:07:18;29.40;65.80
22114;DHT22;11223;49.968;9.062;2022-07-12T12:15:06;29.50;65.30
22114;DHT22;11223;49.968;9.062;2022-07-12T12:17:33;29.60;64.70
22114;DHT22;11223;49.968;9.062;2022-07-12T12:20:08;29.60;62.90
22114;DHT22;11223;49.968;9.062;2022-07-12T12:22:35;29.50;59.80
22114;DHT22;11223;49.968;9.062;2022-07-12T12:25:03;29.60;61.40
22114;DHT22;11223;49.968;9.062;2022-07-12T12:27:29;29.60;63.20
22114;DHT22;11223;49.968;9.062;2022-07-12T12:30:05;29.70;63.70
22114;DHT22;11223;49.968;9.062;2022-07-12T12:32:43;29.90;63.70
22114;DHT22;11223;49.968;9.062;2022-07-12T12:35:10;30.00;65.00
22114;DHT22;11223;49.968;9.062;2022-07-12T12:37:35;30.10;63.40
22114;DHT22;11223;49.968;9.062;2022-07-12T12:40:02;30.20;61.90
22114;DHT22;11223;49.968;9.062;2022-07-12T12:42:28;30.20;63.00
22114;DHT22;11223;49.968;9.062;2022-07-12T12:44:56;30.20;63.20
22114;DHT22;11223;49.968;9.062;2022-07-12T12:47:22;30.30;60.60
22114;DHT22;11223;49.968;9.062;2022-07-12T12:49:57;30.30;59.90
22114;DHT22;11223;49.968;9.062;2022-07-12T12:52:23;30.40;59.90
22114;DHT22;11223;49.968;9.062;2022-07-12T12:54:49;30.40;59.60
22114;DHT22;11223;49.968;9.062;2022-07-12T12:57:15;30.40;60.60
22114;DHT22;11223;49.968;9.062;2022-07-12T12:59:40;30.50;58.50
22114;DHT22;11223;49.968;9.062;2022-07-12T13:02:07;30.50;60.60
22114;DHT22;11223;49.968;9.062;2022-07-12T13:04:36;30.60;59.00
22114;DHT22;11223;49.968;9.062;2022-07-12T13:07:02;30.70;59.40
22114;DHT22;11223;49.968;9.062;2022-07-12T13:09:28;30.90;59.80
22114;DHT22;11223;49.968;9.062;2022-07-12T13:11:55;31.10;59.00
22114;DHT22;11223;49.968;9.062;2022-07-12T13:14:21;31.10;57.10
22114;DHT22;11223;49.968;9.062;2022-07-12T13:16:47;31.20;56.90
22114;DHT22;11223;49.968;9.062;2022-07-12T13:19:12;31.30;56.70
22114;DHT22;11223;49.968;9.062;2022-07-12T13:21:38;31.40;55.50
22114;DHT22;11223;49.968;9.062;2022-07-12T13:24:06;31.30;55.30
22114;DHT22;11223;49.968;9.062;2022-07-12T13:26:32;31.30;56.30
22114;DHT22;11223;49.968;9.062;2022-07-12T13:28:58;31.50;56.50
22114;DHT22;11223;49.968;9.062;2022-07-12T13:31:24;31.60;53.70
22114;DHT22;11223;49.968;9.062;2022-07-12T13:33:52;31.70;54.40
22114;DHT22;11223;49.968;9.062;2022-07-12T13:36:17;31.70;54.60
22114;DHT22;11223;49.968;9.062;2022-07-12T13:38:43;31.70;55.00
22114;DHT22;11223;49.968;9.062;2022-07-12T13:41:09;32.00;54.40
22114;DHT22;11223;49.968;9.062;2022-07-12T13:43:34;32.20;53.40
22114;DHT22;11223;49.968;9.062;2022-07-12T13:46:00;32.40;52.10
22114;DHT22;11223;49.968;9.062;2022-07-12T13:48:26;32.80;52.80
22114;DHT22;11223;49.968;9.062;2022-07-12T13:50:51;33.50;50.50
22114;DHT22;11223;49.968;9.062;2022-07-12T13:53:17;34.40;50.60
22114;DHT22;11223;49.968;9.062;2022-07-12T13:55:44;34.80;48.70
22114;DHT22;11223;49.968;9.062;2022-07-12T13:58:11;34.70;49.70
22114;DHT22;11223;49.968;9.062;2022-07-12T14:00:39;34.70;49.90
22114;DHT22;11223;49.968;9.062;2022-07-12T14:03:05;34.40;49.30
22114;DHT22;11223;49.968;9.062;2022-07-12T14:05:31;34.20;50.20
22114;DHT22;11223;49.968;9.062;2022-07-12T14:07:57;34.00;49.90
22114;DHT22;11223;49.968;9.062;2022-07-12T14:10:22;34.00;47.70
22114;DHT22;11223;49.968;9.062;2022-07-12T14:12:48;33.90;47.70
22114;DHT22;11223;49.968;9.062;2022-07-12T14:15:14;34.00;48.50
22114;DHT22;11223;49.968;9.062;2022-07-12T14:17:42;34.00;48.30
22114;DHT22;11223;49.968;9.062;2022-07-12T14:20:09;34.10;48.70
22114;DHT22;11223;49.968;9.062;2022-07-12T14:22:35;33.90;48.10
22114;DHT22;11223;49.968;9.062;2022-07-12T14:25:04;33.70;49.00
22114;DHT22;11223;49.968;9.062;2022-07-12T14:27:37;33.60;49.00
22114;DHT22;11223;49.968;9.062;2022-07-12T14:30:04;33.40;50.00
22114;DHT22;11223;49.968;9.062;2022-07-12T14:32:31;33.40;46.90
22114;DHT22;11223;49.968;9.062;2022-07-12T14:34:57;33.40;47.70
22114;DHT22;11223;49.968;9.062;2022-07-12T14:37:23;33.50;48.30
22114;DHT22;11223;49.968;9.062;2022-07-12T14:39:48;33.60;48.10
22114;DHT22;11223;49.968;9.062;2022-07-12T14:42:14;33.70;48.60
22114;DHT22;11223;49.968;9.062;2022-07-12T14:44:40;34.00;47.30
22114;DHT22;11223;49.968;9.062;2022-07-12T14:47:05;34.30;45.00
22114;DHT22;11223;49.968;9.062;2022-07-12T14:49:31;34.60;45.70
22114;DHT22;11223;49.968;9.062;2022-07-12T14:51:57;34.90;44.50
22114;DHT22;11223;49.968;9.062;2022-07-12T14:54:23;35.20;45.30
22114;DHT22;11223;49.968;9.062;2022-07-12T14:56:49;36.50;42.50
22114;DHT22;11223;49.968;9.062;2022-07-12T14:59:14;37.80;41.80
22114;DHT22;11223;49.968;9.062;2022-07-12T15:01:40;39.20;38.80
22114;DHT22;11223;49.968;9.062;2022-07-12T15:04:06;40.00;38.10
22114;DHT22;11223;49.968;9.062;2022-07-12T15:06:31;40.90;37.00
22114;DHT22;11223;49.968;9.062;2022-07-12T15:08:57;40.80;36.50
22114;DHT22;11223;49.968;9.062;2022-07-12T15:11:23;40.60;35.90
22114;DHT22;11223;49.968;9.062;2022-07-12T15:13:48;40.60;37.00
22114;DHT22;11223;49.968;9.062;2022-07-12T15:16:14;40.60;35.80
22114;DHT22;11223;49.968;9.062;2022-07-12T15:18:40;40.70;37.10
22114;DHT22;11223;49.968;9.062;2022-07-12T15:21:06;41.30;34.70
22114;DHT22;11223;49.968;9.062;2022-07-12T15:23:32;41.40;33.90
22114;DHT22;11223;49.968;9.062;2022-07-12T15:25:58;40.90;34.90
22114;DHT22;11223;49.968;9.062;2022-07-12T15:28:28;39.80;35.60
22114;DHT22;11223;49.968;9.062;2022-07-12T15:30:55;38.90;37.60
22114;DHT22;11223;49.968;9.062;2022-07-12T15:33:20;37.90;38.00
22114;DHT22;11223;49.968;9.062;2022-07-12T15:35:46;37.40;38.00
22114;DHT22;11223;49.968;9.062;2022-07-12T15:38:12;37.10;37.50
22114;DHT22;11223;49.968;9.062;2022-07-12T15:40:38;36.30;40.10
22114;DHT22;11223;49.968;9.062;2022-07-12T15:43:04;35.70;42.20
22114;DHT22;11223;49.968;9.062;2022-07-12T15:45:30;35.20;44.80
22114;DHT22;11223;49.968;9.062;2022-07-12T15:47:56;34.80;43.20
22114;DHT22;11223;49.968;9.062;2022-07-12T15:50:22;34.60;43.00
22114;DHT22;11223;49.968;9.062;2022-07-12T15:52:47;34.40;41.70